createdAt,value
2019-01-21T00:00:39.212Z,100.00
2019-01-21T00:03:14.305Z,100.00
2019-01-21T00:05:38.563Z,100.00
2019-01-21T00:08:07.267Z,100.00
2019-01-21T00:10:35.930Z,100.00
2019-01-21T00:13:05.409Z,100.00
2019-01-21T00:15:34.028Z,100.00
2019-01-21T00:18:02.809Z,100.00
2019-01-21T00:20:31.403Z,100.00
2019-01-21T00:22:59.997Z,100.00
2019-01-21T00:25:28.585Z,100.00
2019-01-21T00:27:57.300Z,100.00
2019-01-21T00:30:25.893Z,100.00
2019-01-21T00:32:54.638Z,100.00
2019-01-21T00:35:23.223Z,100.00
2019-01-21T00:37:51.846Z,100.00
2019-01-21T00:40:20.432Z,100.00
2019-01-21T00:42:49.045Z,100.00
2019-01-21T00:45:17.710Z,100.00
2019-01-21T00:47:46.323Z,100.00
2019-01-21T00:50:15.046Z,100.00
2019-01-21T00:52:43.663Z,100.00
2019-01-21T00:55:13.794Z,100.00
2019-01-21T00:57:42.513Z,100.00
2019-01-21T01:00:20.190Z,100.00
2019-01-21T01:02:48.980Z,100.00
2019-01-21T01:05:18.517Z,100.00
2019-01-21T01:07:47.223Z,100.00
2019-01-21T01:10:15.857Z,100.00
2019-01-21T01:12:44.467Z,100.00
2019-01-21T01:15:14.723Z,100.00
2019-01-21T01:17:43.460Z,100.00
2019-01-21T01:20:17.399Z,100.00
2019-01-21T01:22:46.121Z,100.00
2019-01-21T01:25:14.674Z,100.00
2019-01-21T01:27:43.362Z,100.00
2019-01-21T01:30:14.365Z,100.00
2019-01-21T01:32:43.024Z,100.00
2019-01-21T01:35:12.945Z,100.00
2019-01-21T01:37:41.740Z,100.00
2019-01-21T01:40:15.248Z,100.00
2019-01-21T01:42:44.424Z,100.00
2019-01-21T01:45:21.230Z,100.00
2019-01-21T01:47:53.420Z,100.00
2019-01-21T01:50:21.984Z,100.00
2019-01-21T01:52:50.636Z,100.00
2019-01-21T01:55:19.268Z,100.00
2019-01-21T01:57:47.948Z,100.00
2019-01-21T02:00:16.957Z,100.00
2019-01-21T02:02:45.686Z,100.00
2019-01-21T02:05:14.267Z,100.00
2019-01-21T02:07:42.889Z,100.00
2019-01-21T02:10:15.710Z,100.00
2019-01-21T02:12:45.028Z,100.00
2019-01-21T02:15:15.740Z,100.00
2019-01-21T02:17:44.469Z,100.00
2019-01-21T02:20:18.267Z,100.00
2019-01-21T02:22:53.037Z,100.00
2019-01-21T02:25:24.822Z,100.00
2019-01-21T02:28:05.161Z,100.00
2019-01-21T02:30:48.546Z,100.00
2019-01-21T02:33:29.157Z,100.00
2019-01-21T02:36:06.613Z,100.00
2019-01-21T02:38:50.461Z,100.00
2019-01-21T02:41:22.244Z,100.00
2019-01-21T02:43:56.750Z,100.00
2019-01-21T02:46:46.585Z,100.00
2019-01-21T02:49:53.227Z,100.00
2019-01-21T02:52:44.588Z,100.00
2019-01-21T02:55:31.147Z,100.00
2019-01-21T02:58:31.510Z,100.00
2019-01-21T03:01:09.073Z,100.00
2019-01-21T03:04:00.216Z,100.00
2019-01-21T03:06:32.020Z,100.00
2019-01-21T03:09:10.034Z,100.00
2019-01-21T03:12:01.492Z,100.00
2019-01-21T03:14:52.783Z,100.00
2019-01-21T03:17:42.715Z,100.00
2019-01-21T03:20:14.496Z,100.00
2019-01-21T03:22:52.019Z,100.00
2019-01-21T03:25:56.950Z,100.00
2019-01-21T03:29:02.085Z,100.00
2019-01-21T03:31:49.033Z,100.00
2019-01-21T03:34:32.857Z,100.00
2019-01-21T03:37:10.394Z,100.00
2019-01-21T03:39:45.174Z,100.00
2019-01-21T03:42:20.367Z,100.00
2019-01-21T03:45:04.215Z,100.00
2019-01-21T03:47:36.126Z,100.00
2019-01-21T03:50:10.672Z,100.00
2019-01-21T03:53:00.153Z,100.00
2019-01-21T03:55:29.033Z,100.00
2019-01-21T03:58:32.269Z,100.00
2019-01-21T04:01:06.575Z,100.00
2019-01-21T04:03:47.015Z,100.00
2019-01-21T04:06:21.854Z,100.00
2019-01-21T04:09:10.062Z,100.00
2019-01-21T04:11:47.794Z,100.00
2019-01-21T04:14:52.993Z,100.00
2019-01-21T04:18:00.161Z,100.00
2019-01-21T04:20:38.045Z,100.00
2019-01-21T04:23:34.362Z,100.00
2019-01-21T04:26:29.195Z,100.00
2019-01-21T04:29:03.635Z,100.00
2019-01-21T04:31:47.308Z,100.00
2019-01-21T04:34:39.945Z,100.00
2019-01-21T04:37:11.701Z,100.00
2019-01-21T04:39:43.480Z,100.00
2019-01-21T04:42:34.919Z,100.00
2019-01-21T04:45:18.776Z,100.00
2019-01-21T04:47:53.170Z,100.00
2019-01-21T04:50:27.897Z,100.00
2019-01-21T04:53:11.357Z,100.00
2019-01-21T04:55:56.904Z,100.00
2019-01-21T04:58:28.671Z,100.00
2019-01-21T05:01:15.865Z,100.00
2019-01-21T05:03:59.585Z,100.00
2019-01-21T05:06:49.305Z,100.00
2019-01-21T05:09:33.798Z,100.00
2019-01-21T05:12:35.652Z,100.00
2019-01-21T05:15:39.450Z,100.00
2019-01-21T05:18:14.053Z,100.00
2019-01-21T05:21:02.249Z,100.00
2019-01-21T05:23:52.189Z,100.00
2019-01-21T05:26:42.025Z,100.00
2019-01-21T05:29:33.216Z,100.00
2019-01-21T05:32:14.067Z,100.00
2019-01-21T05:35:14.579Z,100.00
2019-01-21T05:37:56.249Z,100.00
2019-01-21T05:40:41.069Z,100.00
2019-01-21T05:43:38.604Z,100.00
2019-01-21T05:46:26.932Z,100.00
2019-01-21T05:49:30.327Z,100.00
2019-01-21T05:52:13.469Z,100.00
2019-01-21T05:54:57.119Z,100.00
2019-01-21T05:57:53.023Z,100.00
2019-01-21T06:00:40.028Z,100.00
2019-01-21T06:03:26.559Z,100.00
2019-01-21T06:06:07.384Z,100.00
2019-01-21T06:09:04.374Z,100.00
2019-01-21T06:11:51.212Z,100.00
2019-01-21T06:14:29.105Z,100.00
2019-01-21T06:17:09.634Z,100.00
2019-01-21T06:20:00.744Z,100.00
2019-01-21T06:22:32.504Z,100.00
2019-01-21T06:25:19.355Z,100.00
2019-01-21T06:27:59.807Z,100.00
2019-01-21T06:30:37.300Z,100.00
2019-01-21T06:33:11.827Z,100.00
2019-01-21T06:36:04.608Z,100.00
2019-01-21T06:38:45.001Z,100.00
2019-01-21T06:41:33.490Z,100.00
2019-01-21T06:44:14.272Z,100.00
2019-01-21T06:46:55.050Z,100.00
2019-01-21T06:49:49.275Z,100.00
2019-01-21T06:52:26.621Z,100.00
2019-01-21T06:55:13.640Z,100.00
2019-01-21T06:57:57.401Z,100.00
2019-01-21T07:00:35.380Z,100.00
2019-01-21T07:03:16.276Z,100.00
2019-01-21T07:06:10.267Z,100.00
2019-01-21T07:08:53.880Z,100.00
2019-01-21T07:11:31.118Z,100.00
2019-01-21T07:14:23.961Z,100.00
2019-01-21T07:17:01.933Z,100.00
2019-01-21T07:19:46.302Z,100.00
2019-01-21T07:22:34.902Z,100.00
2019-01-21T07:25:27.276Z,100.00
2019-01-21T07:28:23.020Z,100.00
2019-01-21T07:31:06.636Z,100.00
2019-01-21T07:33:53.604Z,100.00
2019-01-21T07:36:36.972Z,100.00
2019-01-21T07:39:17.337Z,100.00
2019-01-21T07:41:49.165Z,100.00
2019-01-21T07:44:23.786Z,100.00
2019-01-21T07:47:04.603Z,100.00
2019-01-21T07:49:58.774Z,100.00
2019-01-21T07:52:47.314Z,100.00
2019-01-21T07:55:21.989Z,100.00
2019-01-21T07:58:24.113Z,100.00
2019-01-21T08:01:07.769Z,100.00
2019-01-21T08:03:54.673Z,100.00
2019-01-21T08:06:29.249Z,100.00
2019-01-21T08:09:17.413Z,100.00
2019-01-21T08:11:54.992Z,100.00
2019-01-21T08:14:32.753Z,100.00
2019-01-21T08:17:21.215Z,100.00
2019-01-21T08:19:53.087Z,100.00
2019-01-21T08:22:58.079Z,100.00
2019-01-21T08:25:42.331Z,100.00
2019-01-21T08:28:17.259Z,100.00
2019-01-21T08:31:11.303Z,100.00
2019-01-21T08:34:04.182Z,100.00
2019-01-21T08:36:47.935Z,100.00
2019-01-21T08:39:43.583Z,100.00
2019-01-21T08:42:39.719Z,100.00
2019-01-21T08:45:23.409Z,100.00
2019-01-21T08:48:11.759Z,100.00
2019-01-21T08:50:46.263Z,100.00
2019-01-21T08:53:37.703Z,100.00
2019-01-21T08:56:15.267Z,100.00
2019-01-21T08:59:05.209Z,100.00
2019-01-21T09:01:45.301Z,100.00
2019-01-21T09:04:36.591Z,100.00
2019-01-21T09:07:24.952Z,100.00
2019-01-21T09:10:02.243Z,100.00
2019-01-21T09:12:50.282Z,100.00
2019-01-21T09:15:28.288Z,100.00
2019-01-21T09:18:02.911Z,100.00
2019-01-21T09:20:54.227Z,100.00
2019-01-21T09:23:42.266Z,100.00
2019-01-21T09:26:19.762Z,100.00
2019-01-21T09:28:51.620Z,100.00
2019-01-21T09:31:29.419Z,100.00
2019-01-21T09:34:12.953Z,100.00
2019-01-21T09:36:53.825Z,100.00
2019-01-21T09:39:43.912Z,100.00
2019-01-21T09:42:27.670Z,100.00
2019-01-21T09:45:14.460Z,100.00
2019-01-21T09:47:42.134Z,100.00
2019-01-21T09:50:10.809Z,100.00
2019-01-21T09:52:39.598Z,100.00
2019-01-21T09:55:08.997Z,100.00
2019-01-21T09:57:38.688Z,100.00
2019-01-21T10:00:13.211Z,100.00
2019-01-21T10:02:42.536Z,100.00
2019-01-21T10:05:11.431Z,100.00
2019-01-21T10:07:52.819Z,100.00
2019-01-21T10:10:33.378Z,100.00
2019-01-21T10:13:25.614Z,100.00
2019-01-21T10:16:12.527Z,100.00
2019-01-21T10:19:00.828Z,100.00
2019-01-21T10:21:50.350Z,100.00
2019-01-21T10:24:36.800Z,100.00
2019-01-21T10:27:08.625Z,100.00
2019-01-21T10:29:43.228Z,100.00
2019-01-21T10:32:30.351Z,100.00
2019-01-21T10:35:08.354Z,100.00
2019-01-21T10:37:52.916Z,100.00
2019-01-21T10:40:39.722Z,100.00
2019-01-21T10:43:14.551Z,100.00
2019-01-21T10:46:04.698Z,100.00
2019-01-21T10:48:54.419Z,100.00
2019-01-21T10:51:42.562Z,100.00
2019-01-21T10:54:14.527Z,100.00
2019-01-21T10:56:52.121Z,100.00
2019-01-21T10:59:26.664Z,100.00
2019-01-21T11:02:15.092Z,100.00
2019-01-21T11:04:55.551Z,100.00
2019-01-21T11:07:50.480Z,100.00
2019-01-21T11:10:24.894Z,100.00
2019-01-21T11:13:02.571Z,100.00
2019-01-21T11:15:39.138Z,100.00
2019-01-21T11:18:16.733Z,100.00
2019-01-21T11:21:11.019Z,100.00
2019-01-21T11:23:43.102Z,100.00
2019-01-21T11:26:34.506Z,100.00
2019-01-21T11:29:06.675Z,100.00
2019-01-21T11:31:50.909Z,100.00
2019-01-21T11:34:40.580Z,100.00
2019-01-21T11:37:33.324Z,100.00
2019-01-21T11:40:07.929Z,100.00
2019-01-21T11:42:42.600Z,100.00
2019-01-21T11:45:26.445Z,100.00
2019-01-21T11:48:07.300Z,100.00
2019-01-21T11:50:42.237Z,100.00
2019-01-21T11:53:23.122Z,100.00
2019-01-21T11:56:04.500Z,100.00
2019-01-21T11:58:55.716Z,100.00
2019-01-21T12:01:46.514Z,100.00
2019-01-21T12:04:24.239Z,100.00
2019-01-21T12:07:20.248Z,100.00
2019-01-21T12:09:55.173Z,100.00
2019-01-21T12:12:35.479Z,100.00
2019-01-21T12:15:22.443Z,100.00
2019-01-21T12:18:00.141Z,100.00
2019-01-21T12:20:43.673Z,100.00
2019-01-21T12:23:30.483Z,100.00
2019-01-21T12:26:05.215Z,100.00
2019-01-21T12:28:46.081Z,100.00
2019-01-21T12:31:34.430Z,94.21
2019-01-21T12:34:23.081Z,98.20
2019-01-21T12:36:57.609Z,100.00
2019-01-21T12:39:40.835Z,100.00
2019-01-21T12:42:18.735Z,100.00
2019-01-21T12:45:02.661Z,100.00
2019-01-21T12:47:45.465Z,100.00
2019-01-21T12:50:29.130Z,100.00
2019-01-21T12:53:09.797Z,100.00
2019-01-21T12:55:44.421Z,100.00
2019-01-21T12:58:37.070Z,100.00
2019-01-21T13:01:23.635Z,100.00
2019-01-21T13:03:58.303Z,100.00
2019-01-21T13:06:34.543Z,100.00
2019-01-21T13:09:39.500Z,100.00
2019-01-21T13:12:35.733Z,100.00
2019-01-21T13:15:19.950Z,100.00
2019-01-21T13:17:51.784Z,99.07
2019-01-21T13:20:32.098Z,99.01
2019-01-21T13:23:22.182Z,96.08
2019-01-21T13:26:18.414Z,95.25
2019-01-21T13:28:53.112Z,96.05
2019-01-21T13:31:53.618Z,97.23
2019-01-21T13:34:43.988Z,93.63
2019-01-21T13:37:31.896Z,89.53
2019-01-21T13:40:10.214Z,86.64
2019-01-21T13:42:42.079Z,87.22
2019-01-21T13:45:16.707Z,80.04
2019-01-21T13:47:48.481Z,78.24
2019-01-21T13:50:20.345Z,77.53
2019-01-21T13:53:14.705Z,75.28
2019-01-21T13:55:49.494Z,78.65
2019-01-21T13:58:33.176Z,80.28
2019-01-21T14:01:13.949Z,82.38
2019-01-21T14:03:54.400Z,85.24
2019-01-21T14:06:53.397Z,89.73
2019-01-21T14:09:58.743Z,92.84
2019-01-21T14:12:30.705Z,92.15
2019-01-21T14:15:11.270Z,88.85
2019-01-21T14:18:05.349Z,86.14
2019-01-21T14:20:43.622Z,84.55
2019-01-21T14:23:25.374Z,85.88
2019-01-21T14:26:08.889Z,94.04
2019-01-21T14:28:58.874Z,98.09
2019-01-21T14:32:04.421Z,99.90
2019-01-21T14:34:42.120Z,100.00
2019-01-21T14:37:33.531Z,100.00
2019-01-21T14:40:14.504Z,100.00
2019-01-21T14:43:08.405Z,100.00
2019-01-21T14:45:41.777Z,100.00
2019-01-21T14:48:19.575Z,100.00
2019-01-21T14:50:57.170Z,100.00
2019-01-21T14:53:34.572Z,100.00
2019-01-21T14:56:18.327Z,100.00
2019-01-21T14:58:56.006Z,100.00
2019-01-21T15:01:54.890Z,100.00
2019-01-21T15:04:44.987Z,100.00
2019-01-21T15:07:16.946Z,100.00
2019-01-21T15:09:57.618Z,100.00
2019-01-21T15:12:32.466Z,100.00
2019-01-21T15:15:25.459Z,100.00
2019-01-21T15:18:12.645Z,100.00
2019-01-21T15:20:59.940Z,100.00
2019-01-21T15:23:49.854Z,100.00
2019-01-21T15:26:21.721Z,100.00
2019-01-21T15:28:56.370Z,100.00
2019-01-21T15:31:34.407Z,100.00
2019-01-21T15:34:15.393Z,100.00
2019-01-21T15:36:59.235Z,100.00
2019-01-21T15:39:34.125Z,100.00
2019-01-21T15:42:15.128Z,100.00
2019-01-21T15:44:49.911Z,100.00
2019-01-21T15:47:24.490Z,100.00
2019-01-21T15:50:11.699Z,100.00
2019-01-21T15:52:49.713Z,100.00
2019-01-21T15:55:39.792Z,100.00
2019-01-21T15:58:20.054Z,100.00
2019-01-21T16:01:13.317Z,100.00
2019-01-21T16:03:51.111Z,100.00
2019-01-21T16:06:40.433Z,100.00
2019-01-21T16:09:23.883Z,100.00
2019-01-21T16:12:11.975Z,100.00
2019-01-21T16:14:46.060Z,100.00
2019-01-21T16:17:17.872Z,100.00
2019-01-21T16:19:46.518Z,100.00
2019-01-21T16:22:34.854Z,100.00
2019-01-21T16:25:09.378Z,100.00
2019-01-21T16:28:00.489Z,100.00
2019-01-21T16:30:56.519Z,100.00
2019-01-21T16:33:40.168Z,100.00
2019-01-21T16:36:21.126Z,100.00
2019-01-21T16:38:53.377Z,100.00
2019-01-21T16:41:31.200Z,100.00
2019-01-21T16:43:59.949Z,100.00
2019-01-21T16:46:28.548Z,100.00
2019-01-21T16:48:57.215Z,100.00
2019-01-21T16:51:25.797Z,100.00
2019-01-21T16:53:54.513Z,100.00
2019-01-21T16:56:23.100Z,100.00
2019-01-21T16:58:51.706Z,100.00
2019-01-21T17:01:20.292Z,100.00
2019-01-21T17:03:48.899Z,100.00
2019-01-21T17:06:17.538Z,100.00
2019-01-21T17:08:48.987Z,100.00
2019-01-21T17:11:17.679Z,100.00
2019-01-21T17:13:46.261Z,100.00
2019-01-21T17:16:14.928Z,100.00
2019-01-21T17:18:43.499Z,100.00
2019-01-21T17:21:12.322Z,100.00
2019-01-21T17:23:41.613Z,100.00
2019-01-21T17:26:10.401Z,100.00
2019-01-21T17:28:38.972Z,100.00
2019-01-21T17:31:07.625Z,100.00
2019-01-21T17:33:36.259Z,100.00
2019-01-21T17:36:05.388Z,100.00
2019-01-21T17:38:33.972Z,100.00
2019-01-21T17:41:02.630Z,100.00
2019-01-21T17:43:31.234Z,100.00
2019-01-21T17:45:59.933Z,100.00
2019-01-21T17:48:28.559Z,100.00
2019-01-21T17:50:57.124Z,100.00
2019-01-21T17:53:25.811Z,100.00
2019-01-21T17:55:54.374Z,100.00
2019-01-21T17:58:23.048Z,100.00
2019-01-21T18:00:51.624Z,100.00
2019-01-21T18:03:20.287Z,100.00
2019-01-21T18:05:48.866Z,100.00
2019-01-21T18:08:17.475Z,100.00
2019-01-21T18:10:46.039Z,100.00
2019-01-21T18:13:14.703Z,100.00
2019-01-21T18:15:43.264Z,100.00
2019-01-21T18:18:11.904Z,100.00
2019-01-21T18:20:40.544Z,100.00
2019-01-21T18:23:09.328Z,100.00
2019-01-21T18:25:37.918Z,100.00
2019-01-21T18:28:06.637Z,100.00
2019-01-21T18:30:35.268Z,100.00
2019-01-21T18:33:04.132Z,100.00
2019-01-21T18:35:32.725Z,100.00
2019-01-21T18:38:01.371Z,100.00
2019-01-21T18:40:29.962Z,100.00
2019-01-21T18:42:58.574Z,100.00
2019-01-21T18:45:27.299Z,100.00
2019-01-21T18:47:55.926Z,100.00
2019-01-21T18:50:24.705Z,100.00
2019-01-21T18:52:53.375Z,100.00
2019-01-21T18:55:22.031Z,100.00
2019-01-21T18:57:55.876Z,100.00
2019-01-21T19:00:23.277Z,100.00
2019-01-21T19:02:51.905Z,100.00
2019-01-21T19:05:20.943Z,100.00
2019-01-21T19:07:49.738Z,100.00
2019-01-21T19:10:19.156Z,100.00
2019-01-21T19:12:47.936Z,100.00
2019-01-21T19:15:22.679Z,100.00
2019-01-21T19:17:51.378Z,100.00
2019-01-21T19:20:20.314Z,100.00
2019-01-21T19:22:48.945Z,100.00
2019-01-21T19:25:17.774Z,100.00
2019-01-21T19:27:46.440Z,100.00
2019-01-21T19:30:21.080Z,100.00
2019-01-21T19:32:49.784Z,100.00
2019-01-21T19:35:21.553Z,100.00
2019-01-21T19:37:50.236Z,100.00
2019-01-21T19:40:21.040Z,100.00
2019-01-21T19:42:49.839Z,100.00
2019-01-21T19:45:18.985Z,100.00
2019-01-21T19:47:47.715Z,100.00
2019-01-21T19:50:19.736Z,100.00
2019-01-21T19:52:48.420Z,100.00
2019-01-21T19:55:35.100Z,100.00
2019-01-21T19:58:03.822Z,100.00
2019-01-21T20:00:32.474Z,100.00
2019-01-21T20:03:01.139Z,100.00
2019-01-21T20:05:29.869Z,100.00
2019-01-21T20:07:58.506Z,100.00
2019-01-21T20:10:27.098Z,100.00
2019-01-21T20:12:55.699Z,100.00
2019-01-21T20:15:24.391Z,100.00
2019-01-21T20:17:52.982Z,100.00
2019-01-21T20:20:27.428Z,100.00
2019-01-21T20:22:57.679Z,100.00
2019-01-21T20:25:27.012Z,100.00
2019-01-21T20:27:55.767Z,100.00
2019-01-21T20:30:25.291Z,100.00
2019-01-21T20:32:54.024Z,100.00
2019-01-21T20:35:23.710Z,100.00
2019-01-21T20:37:52.362Z,100.00
2019-01-21T20:40:29.158Z,100.00
2019-01-21T20:42:57.904Z,100.00
2019-01-21T20:45:26.600Z,100.00
2019-01-21T20:47:56.721Z,100.00
2019-01-21T20:50:30.752Z,100.00
2019-01-21T20:52:59.546Z,100.00
2019-01-21T20:55:28.440Z,100.00
2019-01-21T20:57:57.223Z,100.00
2019-01-21T21:00:28.618Z,100.00
2019-01-21T21:02:57.587Z,100.00
2019-01-21T21:05:26.291Z,100.00
2019-01-21T21:07:55.148Z,100.00
2019-01-21T21:10:24.082Z,100.00
2019-01-21T21:12:52.927Z,100.00
2019-01-21T21:15:27.428Z,100.00
2019-01-21T21:17:56.118Z,100.00
2019-01-21T21:20:24.843Z,100.00
2019-01-21T21:22:53.570Z,100.00
2019-01-21T21:25:22.573Z,100.00
2019-01-21T21:27:51.410Z,100.00
2019-01-21T21:30:22.582Z,100.00
2019-01-21T21:32:51.395Z,100.00
2019-01-21T21:35:20.475Z,100.00
2019-01-21T21:37:49.310Z,100.00
2019-01-21T21:40:20.319Z,100.00
2019-01-21T21:42:49.202Z,100.00
2019-01-21T21:45:20.384Z,100.00
2019-01-21T21:47:49.203Z,100.00
2019-01-21T21:50:20.595Z,100.00
2019-01-21T21:52:49.355Z,100.00
2019-01-21T21:55:18.074Z,100.00
2019-01-21T21:57:48.966Z,100.00
2019-01-21T22:00:20.435Z,100.00
2019-01-21T22:02:49.220Z,100.00
2019-01-21T22:05:18.615Z,100.00
2019-01-21T22:07:47.404Z,100.00
2019-01-21T22:10:24.722Z,100.00
2019-01-21T22:12:53.591Z,100.00
2019-01-21T22:15:23.986Z,100.00
2019-01-21T22:17:52.907Z,100.00
2019-01-21T22:20:23.594Z,100.00
2019-01-21T22:22:52.618Z,100.00
2019-01-21T22:25:21.516Z,100.00
2019-01-21T22:27:50.214Z,100.00
2019-01-21T22:30:21.146Z,100.00
2019-01-21T22:32:49.764Z,100.00
2019-01-21T22:35:18.348Z,100.00
2019-01-21T22:37:47.457Z,100.00
2019-01-21T22:40:18.655Z,100.00
2019-01-21T22:42:47.259Z,100.00
2019-01-21T22:45:17.465Z,100.00
2019-01-21T22:47:46.127Z,100.00
2019-01-21T22:50:16.334Z,100.00
2019-01-21T22:52:44.972Z,100.00
2019-01-21T22:55:15.101Z,100.00
2019-01-21T22:57:43.952Z,100.00
2019-01-21T23:00:32.157Z,100.00
2019-01-21T23:03:00.791Z,100.00
2019-01-21T23:05:29.384Z,100.00
2019-01-21T23:07:58.059Z,100.00
2019-01-21T23:10:26.659Z,100.00
2019-01-21T23:12:55.654Z,100.00
2019-01-21T23:15:24.336Z,100.00
2019-01-21T23:17:52.972Z,100.00
2019-01-21T23:20:21.547Z,100.00
2019-01-21T23:22:50.163Z,100.00
2019-01-21T23:25:18.811Z,100.00
2019-01-21T23:27:47.512Z,100.00
2019-01-21T23:30:19.296Z,100.00
2019-01-21T23:32:47.930Z,100.00
2019-01-21T23:35:18.081Z,100.00
2019-01-21T23:37:47.062Z,100.00
2019-01-21T23:40:15.733Z,100.00
2019-01-21T23:42:44.418Z,100.00
2019-01-21T23:45:13.507Z,100.00
2019-01-21T23:47:42.156Z,100.00
2019-01-21T23:50:13.742Z,100.00
2019-01-21T23:52:42.849Z,100.00
2019-01-21T23:55:12.675Z,100.00
2019-01-21T23:57:41.336Z,100.00
